sensor_id;sensor_type;location;lat;lon;timestamp;pressure;altitude;pressure_sealevel;temperature;humidity
73306;BME280;61530;51.158;0.880;2023-05-20T00:01:02;1023.17;;;10.25;36.1972
73306;BME280;61530;51.158;0.880;2023-05-20T00:02:05;1023.17;;;10.3125;36.233
73306;BME280;61530;51.158;0.880;2023-05-20T00:03:08;1023.16;;;10.3125;36.1279
73306;BME280;61530;51.158;0.880;2023-05-20T00:04:14;1023.18;;;10.3125;36.5086
73306;BME280;61530;51.158;0.880;2023-05-20T00:05:17;1023.17;;;10.25;35.4599
73306;BME280;61530;51.158;0.880;2023-05-20T00:06:21;1023.2;;;10.3125;36.403
73306;BME280;61530;51.158;0.880;2023-05-20T00:07:24;1023.17;;;10.25;36.1927
73306;BME280;61530;51.158;0.880;2023-05-20T00:08:30;1023.18;;;10.1875;35.9742
73306;BME280;61530;51.158;0.880;2023-05-20T00:09:33;1023.2;;;10.1875;36.3109
73306;BME280;61530;51.158;0.880;2023-05-20T00:10:37;1023.17;;;10.1875;36.1635
73306;BME280;61530;51.158;0.880;2023-05-20T00:11:40;1023.19;;;10.1875;36.6499
73306;BME280;61530;51.158;0.880;2023-05-20T00:12:46;1023.18;;;10.25;36.3087
73306;BME280;61530;51.158;0.880;2023-05-20T00:13:49;1023.18;;;10.25;35.797
73306;BME280;61530;51.158;0.880;2023-05-20T00:14:53;1023.17;;;10.25;36.5881
73306;BME280;61530;51.158;0.880;2023-05-20T00:15:56;1023.18;;;10.1875;35.558
73306;BME280;61530;51.158;0.880;2023-05-20T00:17:03;1023.16;;;10.1875;36.319
73306;BME280;61530;51.158;0.880;2023-05-20T00:18:06;1023.15;;;10.1875;35.1997
73306;BME280;61530;51.158;0.880;2023-05-20T00:19:10;1023.15;;;10.1875;35.8212
73306;BME280;61530;51.158;0.880;2023-05-20T00:20:12;1023.17;;;10.1875;35.4248
73306;BME280;61530;51.158;0.880;2023-05-20T00:21:18;1023.16;;;10.25;36.0524
73306;BME280;61530;51.158;0.880;2023-05-20T00:22:21;1023.14;;;10.1875;36.017
73306;BME280;61530;51.158;0.880;2023-05-20T00:23:25;1023.12;;;10.125;36.2952
73306;BME280;61530;51.158;0.880;2023-05-20T00:24:28;1023.08;;;10.125;36.1343
73306;BME280;61530;51.158;0.880;2023-05-20T00:25:34;1023.1;;;10.25;35.8792
73306;BME280;61530;51.158;0.880;2023-05-20T00:26:37;1023.11;;;10.1875;35.9479
73306;BME280;61530;51.158;0.880;2023-05-20T00:27:41;1023.09;;;10.25;35.3893
73306;BME280;61530;51.158;0.880;2023-05-20T00:28:44;1023.08;;;10.1875;36.2015
73306;BME280;61530;51.158;0.880;2023-05-20T00:29:50;1023.05;;;10.1875;36.2613
73306;BME280;61530;51.158;0.880;2023-05-20T00:30:54;1023.04;;;10.25;36.0523
73306;BME280;61530;51.158;0.880;2023-05-20T00:31:57;1023.03;;;10.125;36.1104
73306;BME280;61530;51.158;0.880;2023-05-20T00:33:00;1023.02;;;10.125;36.145
73306;BME280;61530;51.158;0.880;2023-05-20T00:34:06;1023.01;;;10.125;36.0769
73306;BME280;61530;51.158;0.880;2023-05-20T00:35:09;1023.03;;;10.125;36.6807
73306;BME280;61530;51.158;0.880;2023-05-20T00:36:13;1023.02;;;10.1875;35.9598
73306;BME280;61530;51.158;0.880;2023-05-20T00:37:16;1023.03;;;10.125;36.0
73306;BME280;61530;51.158;0.880;2023-05-20T00:38:22;1023.0;;;10.125;35.7597
73306;BME280;61530;51.158;0.880;2023-05-20T00:39:25;1022.99;;;10.125;36.1683
73306;BME280;61530;51.158;0.880;2023-05-20T00:40:29;1022.96;;;10.1875;35.5947
73306;BME280;61530;51.158;0.880;2023-05-20T00:41:32;1022.97;;;10.1875;36.3471
73306;BME280;61530;51.158;0.880;2023-05-20T00:42:38;1022.93;;;10.1875;36.2096
73306;BME280;61530;51.158;0.880;2023-05-20T00:43:41;1022.94;;;10.125;36.4134
73306;BME280;61530;51.158;0.880;2023-05-20T00:44:45;1022.89;;;10.125;36.2403
73306;BME280;61530;51.158;0.880;2023-05-20T00:45:49;1022.92;;;10.0625;36.4858
73306;BME280;61530;51.158;0.880;2023-05-20T00:46:54;1022.91;;;10.0625;36.2669
73306;BME280;61530;51.158;0.880;2023-05-20T00:47:57;1022.91;;;10.0625;36.0821
73306;BME280;61530;51.158;0.880;2023-05-20T00:49:01;1022.9;;;10.0625;36.1658
73306;BME280;61530;51.158;0.880;2023-05-20T00:50:05;1022.9;;;10.0;34.7858
73306;BME280;61530;51.158;0.880;2023-05-20T00:51:10;1022.89;;;10.0;35.9288
73306;BME280;61530;51.158;0.880;2023-05-20T00:52:14;1022.87;;;10.0;36.0607
73306;BME280;61530;51.158;0.880;2023-05-20T00:53:17;1022.87;;;10.0;37.2184
73306;BME280;61530;51.158;0.880;2023-05-20T00:54:21;1022.89;;;10.0625;36.9765
73306;BME280;61530;51.158;0.880;2023-05-20T00:55:26;1022.88;;;10.0625;36.6765
73306;BME280;61530;51.158;0.880;2023-05-20T00:56:29;1022.9;;;10.0625;36.5261
73306;BME280;61530;51.158;0.880;2023-05-20T00:57:33;1022.85;;;10.0625;36.3359
73306;BME280;61530;51.158;0.880;2023-05-20T00:58:37;1022.87;;;10.0625;35.6098
73306;BME280;61530;51.158;0.880;2023-05-20T00:59:42;1022.83;;;10.0625;36.4452
73306;BME280;61530;51.158;0.880;2023-05-20T01:00:46;1022.82;;;10.0;36.3711
73306;BME280;61530;51.158;0.880;2023-05-20T01:01:49;1022.83;;;10.0;36.5548
73306;BME280;61530;51.158;0.880;2023-05-20T01:02:54;1022.76;;;10.0;36.4169
73306;BME280;61530;51.158;0.880;2023-05-20T01:03:58;1022.77;;;10.0625;36.6824
73306;BME280;61530;51.158;0.880;2023-05-20T01:05:02;1022.73;;;10.125;36.7125
73306;BME280;61530;51.158;0.880;2023-05-20T01:06:05;1022.69;;;10.0625;36.8778
73306;BME280;61530;51.158;0.880;2023-05-20T01:07:08;1022.7;;;10.0625;36.5323
73306;BME280;61530;51.158;0.880;2023-05-20T01:08:14;1022.68;;;10.0;36.9703
73306;BME280;61530;51.158;0.880;2023-05-20T01:09:17;1022.67;;;9.9375;37.2187
73306;BME280;61530;51.158;0.880;2023-05-20T01:10:22;1022.65;;;10.0;36.7631
73306;BME280;61530;51.158;0.880;2023-05-20T01:11:30;1022.67;;;10.0;36.2095
73306;BME280;61530;51.158;0.880;2023-05-20T01:12:34;1022.67;;;10.125;35.7873
73306;BME280;61530;51.158;0.880;2023-05-20T01:13:40;1022.67;;;10.125;36.82
73306;BME280;61530;51.158;0.880;2023-05-20T01:14:44;1022.65;;;10.0;36.5668
73306;BME280;61530;51.158;0.880;2023-05-20T01:15:42;1022.65;;;10.0625;36.5441
73306;BME280;61530;51.158;0.880;2023-05-20T01:16:48;1022.64;;;10.0625;37.13
73306;BME280;61530;51.158;0.880;2023-05-20T01:17:53;1022.67;;;10.125;36.8444
73306;BME280;61530;51.158;0.880;2023-05-20T01:18:55;1022.63;;;10.0625;37.1318
73306;BME280;61530;51.158;0.880;2023-05-20T01:19:58;1022.63;;;10.125;37.2763
73306;BME280;61530;51.158;0.880;2023-05-20T01:21:03;1022.66;;;10.0;36.2907
73306;BME280;61530;51.158;0.880;2023-05-20T01:22:06;1022.64;;;9.9375;37.0725
73306;BME280;61530;51.158;0.880;2023-05-20T01:23:09;1022.64;;;10.0625;37.0612
73306;BME280;61530;51.158;0.880;2023-05-20T01:24:12;1022.63;;;10.0625;36.6934
73306;BME280;61530;51.158;0.880;2023-05-20T01:25:18;1022.63;;;10.0;36.8423
73306;BME280;61530;51.158;0.880;2023-05-20T01:26:21;1022.62;;;10.125;36.261
73306;BME280;61530;51.158;0.880;2023-05-20T01:27:25;1022.59;;;10.0;35.9332
73306;BME280;61530;51.158;0.880;2023-05-20T01:28:28;1022.57;;;10.125;37.4084
73306;BME280;61530;51.158;0.880;2023-05-20T01:29:34;1022.57;;;10.125;37.2805
73306;BME280;61530;51.158;0.880;2023-05-20T01:30:41;1022.56;;;10.1875;36.7721
73306;BME280;61530;51.158;0.880;2023-05-20T01:31:41;1022.56;;;10.1875;37.1868
73306;BME280;61530;51.158;0.880;2023-05-20T01:32:47;1022.57;;;10.0625;37.1346
73306;BME280;61530;51.158;0.880;2023-05-20T01:33:55;1022.55;;;10.0;37.0155
73306;BME280;61530;51.158;0.880;2023-05-20T01:34:54;1022.56;;;10.125;37.1701
73306;BME280;61530;51.158;0.880;2023-05-20T01:35:57;1022.53;;;10.125;37.1944
73306;BME280;61530;51.158;0.880;2023-05-20T01:37:01;1022.5;;;10.125;37.1072
73306;BME280;61530;51.158;0.880;2023-05-20T01:38:06;1022.5;;;10.0625;37.5341
73306;BME280;61530;51.158;0.880;2023-05-20T01:39:09;1022.48;;;10.0625;36.6594
73306;BME280;61530;51.158;0.880;2023-05-20T01:40:14;1022.47;;;10.125;37.4354
73306;BME280;61530;51.158;0.880;2023-05-20T01:41:16;1022.48;;;10.0625;37.4355
73306;BME280;61530;51.158;0.880;2023-05-20T01:42:22;1022.5;;;10.1875;37.4065
73306;BME280;61530;51.158;0.880;2023-05-20T01:43:26;1022.49;;;10.125;37.4756
73306;BME280;61530;51.158;0.880;2023-05-20T01:44:29;1022.47;;;10.25;37.2219
73306;BME280;61530;51.158;0.880;2023-05-20T01:45:32;1022.47;;;10.1875;36.8811
73306;BME280;61530;51.158;0.880;2023-05-20T01:46:38;1022.47;;;10.25;37.6369
73306;BME280;61530;51.158;0.880;2023-05-20T01:47:44;1022.44;;;10.1875;38.1321
73306;BME280;61530;51.158;0.880;2023-05-20T01:48:45;1022.45;;;10.25;37.5041
73306;BME280;61530;51.158;0.880;2023-05-20T01:49:48;1022.41;;;10.25;37.2212
73306;BME280;61530;51.158;0.880;2023-05-20T01:50:54;1022.42;;;10.25;37.1759
73306;BME280;61530;51.158;0.880;2023-05-20T01:51:58;1022.4;;;10.3125;37.7751
73306;BME280;61530;51.158;0.880;2023-05-20T01:53:01;1022.36;;;10.3125;36.8411
73306;BME280;61530;51.158;0.880;2023-05-20T01:54:04;1022.32;;;10.3125;37.1708
73306;BME280;61530;51.158;0.880;2023-05-20T01:55:10;1022.33;;;10.3125;38.437
73306;BME280;61530;51.158;0.880;2023-05-20T01:56:13;1022.33;;;10.375;38.0397
73306;BME280;61530;51.158;0.880;2023-05-20T01:57:17;1022.32;;;10.3125;37.9299
73306;BME280;61530;51.158;0.880;2023-05-20T01:58:20;1022.31;;;10.3125;36.3181
73306;BME280;61530;51.158;0.880;2023-05-20T01:59:26;1022.3;;;10.3125;38.1903
73306;BME280;61530;51.158;0.880;2023-05-20T02:00:30;1022.29;;;10.3125;38.2586
73306;BME280;61530;51.158;0.880;2023-05-20T02:01:33;1022.28;;;10.3125;37.9006
73306;BME280;61530;51.158;0.880;2023-05-20T02:02:36;1022.27;;;10.375;36.685
73306;BME280;61530;51.158;0.880;2023-05-20T02:03:42;1022.29;;;10.375;37.9291
73306;BME280;61530;51.158;0.880;2023-05-20T02:04:47;1022.28;;;10.375;38.0737
73306;BME280;61530;51.158;0.880;2023-05-20T02:05:49;1022.27;;;10.4375;35.4014
73306;BME280;61530;51.158;0.880;2023-05-20T02:06:52;1022.27;;;10.375;38.1313
73306;BME280;61530;51.158;0.880;2023-05-20T02:07:58;1022.25;;;10.4375;37.3249
73306;BME280;61530;51.158;0.880;2023-05-20T02:09:02;1022.24;;;10.3125;38.1947
73306;BME280;61530;51.158;0.880;2023-05-20T02:10:06;1022.23;;;10.4375;37.86
73306;BME280;61530;51.158;0.880;2023-05-20T02:11:08;1022.24;;;10.4375;38.1138
73306;BME280;61530;51.158;0.880;2023-05-20T02:12:14;1022.26;;;10.5;38.5753
73306;BME280;61530;51.158;0.880;2023-05-20T02:13:17;1022.28;;;10.4375;38.6386
73306;BME280;61530;51.158;0.880;2023-05-20T02:14:21;1022.26;;;10.5625;38.5751
73306;BME280;61530;51.158;0.880;2023-05-20T02:15:24;1022.23;;;10.4375;35.7966
73306;BME280;61530;51.158;0.880;2023-05-20T02:16:30;1022.24;;;10.5625;38.6848
73306;BME280;61530;51.158;0.880;2023-05-20T02:17:33;1022.21;;;10.5625;38.224
73306;BME280;61530;51.158;0.880;2023-05-20T02:18:37;1022.23;;;10.5625;38.4764
73306;BME280;61530;51.158;0.880;2023-05-20T02:19:40;1022.25;;;10.625;38.1185
73306;BME280;61530;51.158;0.880;2023-05-20T02:20:46;1022.22;;;10.625;38.3613
73306;BME280;61530;51.158;0.880;2023-05-20T02:21:50;1022.2;;;10.6875;38.4415
73306;BME280;61530;51.158;0.880;2023-05-20T02:22:53;1022.21;;;10.6875;37.8073
73306;BME280;61530;51.158;0.880;2023-05-20T02:23:56;1022.21;;;10.75;37.9804
73306;BME280;61530;51.158;0.880;2023-05-20T02:25:02;1022.19;;;10.6875;38.2971
73306;BME280;61530;51.158;0.880;2023-05-20T02:26:05;1022.19;;;10.6875;38.6143
73306;BME280;61530;51.158;0.880;2023-05-20T02:27:09;1022.2;;;10.75;38.8847
73306;BME280;61530;51.158;0.880;2023-05-20T02:28:12;1022.18;;;10.75;38.2565
73306;BME280;61530;51.158;0.880;2023-05-20T02:29:18;1022.15;;;10.75;38.6322
73306;BME280;61530;51.158;0.880;2023-05-20T02:30:21;1022.15;;;10.6875;38.5459
73306;BME280;61530;51.158;0.880;2023-05-20T02:31:25;1022.17;;;10.75;38.672
73306;BME280;61530;51.158;0.880;2023-05-20T02:32:28;1022.17;;;10.75;38.7296
73306;BME280;61530;51.158;0.880;2023-05-20T02:33:34;1022.21;;;10.75;38.4293
73306;BME280;61530;51.158;0.880;2023-05-20T02:34:38;1022.19;;;10.6875;38.3676
73306;BME280;61530;51.158;0.880;2023-05-20T02:35:41;1022.15;;;10.75;38.9837
73306;BME280;61530;51.158;0.880;2023-05-20T02:36:44;1022.13;;;10.6875;38.31
73306;BME280;61530;51.158;0.880;2023-05-20T02:37:50;1022.14;;;10.6875;37.4718
73306;BME280;61530;51.158;0.880;2023-05-20T02:38:53;1022.15;;;10.75;39.4562
73306;BME280;61530;51.158;0.880;2023-05-20T02:39:57;1022.13;;;10.625;39.145
73306;BME280;61530;51.158;0.880;2023-05-20T02:41:00;1022.14;;;10.625;39.0699
73306;BME280;61530;51.158;0.880;2023-05-20T02:42:06;1022.13;;;10.75;38.1772
73306;BME280;61530;51.158;0.880;2023-05-20T02:43:09;1022.12;;;10.75;39.3873
73306;BME280;61530;51.158;0.880;2023-05-20T02:44:13;1022.13;;;10.75;39.4101
73306;BME280;61530;51.158;0.880;2023-05-20T02:45:16;1022.15;;;10.75;38.2071
73306;BME280;61530;51.158;0.880;2023-05-20T02:46:22;1022.13;;;10.6875;39.6635
73306;BME280;61530;51.158;0.880;2023-05-20T02:47:26;1022.11;;;10.8125;38.8051
73306;BME280;61530;51.158;0.880;2023-05-20T02:48:29;1022.13;;;10.6875;38.8402
73306;BME280;61530;51.158;0.880;2023-05-20T02:49:32;1022.11;;;10.6875;38.9846
73306;BME280;61530;51.158;0.880;2023-05-20T02:50:38;1022.11;;;10.6875;39.508
73306;BME280;61530;51.158;0.880;2023-05-20T02:51:41;1022.12;;;10.6875;37.2729
73306;BME280;61530;51.158;0.880;2023-05-20T02:52:45;1022.13;;;10.6875;39.0752
73306;BME280;61530;51.158;0.880;2023-05-20T02:53:48;1022.16;;;10.75;38.1702
73306;BME280;61530;51.158;0.880;2023-05-20T02:54:54;1022.16;;;10.75;38.4754
73306;BME280;61530;51.158;0.880;2023-05-20T02:55:57;1022.16;;;10.8125;38.5327
73306;BME280;61530;51.158;0.880;2023-05-20T02:57:01;1022.13;;;10.75;38.8279
73306;BME280;61530;51.158;0.880;2023-05-20T02:58:04;1022.18;;;10.8125;38.4293
73306;BME280;61530;51.158;0.880;2023-05-20T02:59:10;1022.16;;;10.75;37.2652
73306;BME280;61530;51.158;0.880;2023-05-20T03:00:14;1022.15;;;10.8125;39.5362
73306;BME280;61530;51.158;0.880;2023-05-20T03:01:17;1022.15;;;10.75;38.6489
73306;BME280;61530;51.158;0.880;2023-05-20T03:02:20;1022.2;;;10.875;38.8215
73306;BME280;61530;51.158;0.880;2023-05-20T03:03:26;1022.23;;;10.75;38.4872
73306;BME280;61530;51.158;0.880;2023-05-20T03:04:29;1022.19;;;10.75;38.7701
73306;BME280;61530;51.158;0.880;2023-05-20T03:05:33;1022.2;;;10.8125;38.0952
73306;BME280;61530;51.158;0.880;2023-05-20T03:06:36;1022.19;;;10.8125;38.6026
73306;BME280;61530;51.158;0.880;2023-05-20T03:07:42;1022.16;;;10.8125;39.0121
73306;BME280;61530;51.158;0.880;2023-05-20T03:08:45;1022.22;;;10.8125;38.4756
73306;BME280;61530;51.158;0.880;2023-05-20T03:09:49;1022.17;;;10.875;37.986
73306;BME280;61530;51.158;0.880;2023-05-20T03:10:52;1022.18;;;10.875;38.6717
73306;BME280;61530;51.158;0.880;2023-05-20T03:11:58;1022.16;;;10.8125;37.6299
73306;BME280;61530;51.158;0.880;2023-05-20T03:13:02;1022.18;;;10.8125;38.0553
73306;BME280;61530;51.158;0.880;2023-05-20T03:14:05;1022.14;;;10.9375;38.522
73306;BME280;61530;51.158;0.880;2023-05-20T03:15:09;1022.17;;;10.75;38.7636
73306;BME280;61530;51.158;0.880;2023-05-20T03:16:14;1022.14;;;10.75;38.9197
73306;BME280;61530;51.158;0.880;2023-05-20T03:17:17;1022.12;;;10.75;37.8468
73306;BME280;61530;51.158;0.880;2023-05-20T03:18:21;1022.09;;;10.8125;38.0533
73306;BME280;61530;51.158;0.880;2023-05-20T03:19:24;1022.08;;;10.875;38.3542
73306;BME280;61530;51.158;0.880;2023-05-20T03:20:30;1022.06;;;10.8125;38.1976
73306;BME280;61530;51.158;0.880;2023-05-20T03:21:33;1022.04;;;10.8125;38.8623
73306;BME280;61530;51.158;0.880;2023-05-20T03:22:37;1022.03;;;10.8125;38.2846
73306;BME280;61530;51.158;0.880;2023-05-20T03:23:40;1022.03;;;10.8125;38.5159
73306;BME280;61530;51.158;0.880;2023-05-20T03:24:46;1022.05;;;10.6875;38.0711
73306;BME280;61530;51.158;0.880;2023-05-20T03:25:49;1022.03;;;10.8125;36.8137
73306;BME280;61530;51.158;0.880;2023-05-20T03:26:53;1022.04;;;10.8125;38.3023
73306;BME280;61530;51.158;0.880;2023-05-20T03:27:56;1022.02;;;10.8125;38.2846
73306;BME280;61530;51.158;0.880;2023-05-20T03:29:04;1022.0;;;10.75;37.701
73306;BME280;61530;51.158;0.880;2023-05-20T03:30:06;1021.98;;;10.8125;38.2034
73306;BME280;61530;51.158;0.880;2023-05-20T03:31:09;1022.01;;;10.75;37.7605
73306;BME280;61530;51.158;0.880;2023-05-20T03:32:12;1021.99;;;10.8125;38.4178
73306;BME280;61530;51.158;0.880;2023-05-20T03:33:18;1021.99;;;10.75;38.2049
73306;BME280;61530;51.158;0.880;2023-05-20T03:34:21;1022.0;;;10.75;38.6257
73306;BME280;61530;51.158;0.880;2023-05-20T03:35:25;1022.04;;;10.6875;38.4581
73306;BME280;61530;51.158;0.880;2023-05-20T03:36:28;1022.02;;;10.8125;37.9218
73306;BME280;61530;51.158;0.880;2023-05-20T03:37:34;1022.01;;;10.6875;38.406
73306;BME280;61530;51.158;0.880;2023-05-20T03:38:37;1021.97;;;10.625;39.047
73306;BME280;61530;51.158;0.880;2023-05-20T03:39:41;1021.93;;;10.625;38.9784
73306;BME280;61530;51.158;0.880;2023-05-20T03:40:44;1021.98;;;10.625;38.8743
73306;BME280;61530;51.158;0.880;2023-05-20T03:41:50;1022.0;;;10.6875;39.0644
73306;BME280;61530;51.158;0.880;2023-05-20T03:42:53;1022.02;;;10.625;38.1017
73306;BME280;61530;51.158;0.880;2023-05-20T03:43:57;1021.99;;;10.6875;39.0127
73306;BME280;61530;51.158;0.880;2023-05-20T03:45:00;1021.99;;;10.75;38.5
73306;BME280;61530;51.158;0.880;2023-05-20T03:46:06;1022.0;;;10.6875;38.8854
73306;BME280;61530;51.158;0.880;2023-05-20T03:47:09;1022.0;;;10.75;38.4358
73306;BME280;61530;51.158;0.880;2023-05-20T03:48:13;1021.98;;;10.75;38.6544
73306;BME280;61530;51.158;0.880;2023-05-20T03:49:16;1022.01;;;10.75;37.2355
73306;BME280;61530;51.158;0.880;2023-05-20T03:50:22;1021.98;;;10.6875;38.6137
73306;BME280;61530;51.158;0.880;2023-05-20T03:51:25;1021.96;;;10.75;39.6175
73306;BME280;61530;51.158;0.880;2023-05-20T03:52:29;1021.97;;;10.6875;38.8219
73306;BME280;61530;51.158;0.880;2023-05-20T03:53:32;1021.93;;;10.75;38.5118
73306;BME280;61530;51.158;0.880;2023-05-20T03:54:38;1021.97;;;10.75;39.0638
73306;BME280;61530;51.158;0.880;2023-05-20T03:55:41;1021.95;;;10.6875;38.4876
73306;BME280;61530;51.158;0.880;2023-05-20T03:56:45;1021.95;;;10.8125;38.6257
73306;BME280;61530;51.158;0.880;2023-05-20T03:57:48;1021.92;;;10.8125;39.3408
73306;BME280;61530;51.158;0.880;2023-05-20T03:58:54;1021.93;;;10.75;38.8387
73306;BME280;61530;51.158;0.880;2023-05-20T03:59:57;1021.92;;;10.6875;37.9339
73306;BME280;61530;51.158;0.880;2023-05-20T04:01:01;1021.9;;;10.75;38.4761
73306;BME280;61530;51.158;0.880;2023-05-20T04:02:05;1021.93;;;10.75;36.828
73306;BME280;61530;51.158;0.880;2023-05-20T04:03:10;1021.88;;;10.75;38.8793
73306;BME280;61530;51.158;0.880;2023-05-20T04:04:13;1021.89;;;10.8125;38.6713
73306;BME280;61530;51.158;0.880;2023-05-20T04:05:17;1021.9;;;10.875;38.4983
73306;BME280;61530;51.158;0.880;2023-05-20T04:06:20;1021.87;;;10.75;35.959
73306;BME280;61530;51.158;0.880;2023-05-20T04:07:26;1021.88;;;10.75;38.4173
73306;BME280;61530;51.158;0.880;2023-05-20T04:08:29;1021.86;;;10.6875;37.8632
73306;BME280;61530;51.158;0.880;2023-05-20T04:09:33;1021.82;;;10.75;37.6323
73306;BME280;61530;51.158;0.880;2023-05-20T04:10:36;1021.82;;;10.75;37.2985
73306;BME280;61530;51.158;0.880;2023-05-20T04:11:42;1021.83;;;10.8125;38.6707
73306;BME280;61530;51.158;0.880;2023-05-20T04:12:45;1021.84;;;10.8125;38.2616
73306;BME280;61530;51.158;0.880;2023-05-20T04:13:49;1021.84;;;10.75;37.8057
73306;BME280;61530;51.158;0.880;2023-05-20T04:14:52;1021.84;;;10.8125;38.232
73306;BME280;61530;51.158;0.880;2023-05-20T04:15:58;1021.84;;;10.8125;36.4673
73306;BME280;61530;51.158;0.880;2023-05-20T04:17:03;1021.87;;;10.8125;38.7059
73306;BME280;61530;51.158;0.880;2023-05-20T04:18:05;1021.87;;;10.75;38.879
73306;BME280;61530;51.158;0.880;2023-05-20T04:19:08;1021.86;;;10.8125;38.5793
73306;BME280;61530;51.158;0.880;2023-05-20T04:20:14;1021.88;;;10.8125;36.4749
73306;BME280;61530;51.158;0.880;2023-05-20T04:21:17;1021.89;;;10.8125;38.0547
73306;BME280;61530;51.158;0.880;2023-05-20T04:22:21;1021.87;;;10.8125;38.2506
73306;BME280;61530;51.158;0.880;2023-05-20T04:23:24;1021.85;;;10.8125;38.579
73306;BME280;61530;51.158;0.880;2023-05-20T04:24:30;1021.86;;;10.9375;37.8699
73306;BME280;61530;51.158;0.880;2023-05-20T04:25:34;1021.86;;;10.875;38.4919
73306;BME280;61530;51.158;0.880;2023-05-20T04:26:37;1021.84;;;10.9375;37.5743
73306;BME280;61530;51.158;0.880;2023-05-20T04:27:40;1021.83;;;10.9375;38.3479
73306;BME280;61530;51.158;0.880;2023-05-20T04:28:46;1021.87;;;10.8125;39.0865
73306;BME280;61530;51.158;0.880;2023-05-20T04:29:49;1021.89;;;10.9375;38.729
73306;BME280;61530;51.158;0.880;2023-05-20T04:30:57;1021.89;;;10.9375;37.7721
73306;BME280;61530;51.158;0.880;2023-05-20T04:31:56;1021.87;;;10.9375;39.1901
73306;BME280;61530;51.158;0.880;2023-05-20T04:33:02;1021.88;;;10.9375;38.0321
73306;BME280;61530;51.158;0.880;2023-05-20T04:34:05;1021.85;;;10.875;38.7298
73306;BME280;61530;51.158;0.880;2023-05-20T04:35:09;1021.87;;;10.875;38.7179
73306;BME280;61530;51.158;0.880;2023-05-20T04:36:12;1021.84;;;10.75;39.1269
73306;BME280;61530;51.158;0.880;2023-05-20T04:37:18;1021.87;;;10.875;38.7865
73306;BME280;61530;51.158;0.880;2023-05-20T04:38:21;1021.79;;;10.75;39.5599
73306;BME280;61530;51.158;0.880;2023-05-20T04:39:25;1021.86;;;10.8125;39.0806
73306;BME280;61530;51.158;0.880;2023-05-20T04:40:28;1021.85;;;10.9375;39.0002
73306;BME280;61530;51.158;0.880;2023-05-20T04:41:34;1021.85;;;10.875;38.3601
73306;BME280;61530;51.158;0.880;2023-05-20T04:42:37;1021.88;;;10.8125;38.8614
73306;BME280;61530;51.158;0.880;2023-05-20T04:43:41;1021.87;;;10.9375;39.0054
73306;BME280;61530;51.158;0.880;2023-05-20T04:44:44;1021.84;;;10.875;38.4115
73306;BME280;61530;51.158;0.880;2023-05-20T04:45:50;1021.86;;;10.8125;35.3664
73306;BME280;61530;51.158;0.880;2023-05-20T04:46:53;1021.88;;;10.8125;38.9307
73306;BME280;61530;51.158;0.880;2023-05-20T04:47:57;1021.87;;;10.875;39.127
73306;BME280;61530;51.158;0.880;2023-05-20T04:49:00;1021.86;;;10.875;39.1324
73306;BME280;61530;51.158;0.880;2023-05-20T04:50:07;1021.81;;;10.9375;39.3342
73306;BME280;61530;51.158;0.880;2023-05-20T04:51:09;1021.82;;;10.9375;38.9076
73306;BME280;61530;51.158;0.880;2023-05-20T04:52:13;1021.83;;;10.875;39.1035
73306;BME280;61530;51.158;0.880;2023-05-20T04:53:17;1021.85;;;10.875;38.7224
73306;BME280;61530;51.158;0.880;2023-05-20T04:54:22;1021.8;;;10.875;38.3417
73306;BME280;61530;51.158;0.880;2023-05-20T04:55:25;1021.8;;;10.9375;39.686
73306;BME280;61530;51.158;0.880;2023-05-20T04:56:29;1021.79;;;10.875;37.2269
73306;BME280;61530;51.158;0.880;2023-05-20T04:57:32;1021.8;;;10.875;39.6457
73306;BME280;61530;51.158;0.880;2023-05-20T04:58:38;1021.78;;;10.9375;38.7752
73306;BME280;61530;51.158;0.880;2023-05-20T04:59:41;1021.75;;;10.8125;38.8726
73306;BME280;61530;51.158;0.880;2023-05-20T05:00:45;1021.76;;;10.875;39.1675
73306;BME280;61530;51.158;0.880;2023-05-20T05:01:48;1021.76;;;10.9375;38.7632
73306;BME280;61530;51.158;0.880;2023-05-20T05:02:54;1021.77;;;10.9375;36.1447
73306;BME280;61530;51.158;0.880;2023-05-20T05:03:57;1021.78;;;11.0;38.3708
73306;BME280;61530;51.158;0.880;2023-05-20T05:05:01;1021.77;;;11.0;39.0342
73306;BME280;61530;51.158;0.880;2023-05-20T05:06:04;1021.77;;;10.9375;38.3936
73306;BME280;61530;51.158;0.880;2023-05-20T05:07:10;1021.77;;;11.0;38.1051
73306;BME280;61530;51.158;0.880;2023-05-20T05:08:14;1021.78;;;10.875;37.7713
73306;BME280;61530;51.158;0.880;2023-05-20T05:09:17;1021.78;;;10.75;37.794
73306;BME280;61530;51.158;0.880;2023-05-20T05:10:20;1021.77;;;10.75;37.4076
73306;BME280;61530;51.158;0.880;2023-05-20T05:11:26;1021.77;;;10.875;36.8654
73306;BME280;61530;51.158;0.880;2023-05-20T05:12:29;1021.79;;;10.875;38.746
73306;BME280;61530;51.158;0.880;2023-05-20T05:13:33;1021.79;;;11.0;37.8739
73306;BME280;61530;51.158;0.880;2023-05-20T05:14:36;1021.81;;;10.9375;38.0303
73306;BME280;61530;51.158;0.880;2023-05-20T05:15:42;1021.81;;;10.9375;38.5901
73306;BME280;61530;51.158;0.880;2023-05-20T05:16:45;1021.81;;;11.0;38.3068
73306;BME280;61530;51.158;0.880;2023-05-20T05:17:49;1021.83;;;10.9375;36.0338
73306;BME280;61530;51.158;0.880;2023-05-20T05:18:52;1021.84;;;10.8125;38.4638
73306;BME280;61530;51.158;0.880;2023-05-20T05:19:58;1021.84;;;10.875;38.7983
73306;BME280;61530;51.158;0.880;2023-05-20T05:21:03;1021.83;;;10.8125;38.9946
73306;BME280;61530;51.158;0.880;2023-05-20T05:22:05;1021.82;;;10.8125;38.6767
73306;BME280;61530;51.158;0.880;2023-05-20T05:23:08;1021.84;;;10.9375;37.7251
73306;BME280;61530;51.158;0.880;2023-05-20T05:24:14;1021.83;;;10.875;37.8855
73306;BME280;61530;51.158;0.880;2023-05-20T05:25:17;1021.83;;;10.875;38.408
73306;BME280;61530;51.158;0.880;2023-05-20T05:26:21;1021.81;;;10.875;38.9143
73306;BME280;61530;51.158;0.880;2023-05-20T05:27:24;1021.82;;;10.9375;39.3401
73306;BME280;61530;51.158;0.880;2023-05-20T05:28:30;1021.86;;;10.9375;38.7933
73306;BME280;61530;51.158;0.880;2023-05-20T05:29:33;1021.81;;;10.9375;38.3044
73306;BME280;61530;51.158;0.880;2023-05-20T05:30:37;1021.82;;;10.9375;40.256